sensor_id;sensor_type;location;lat;lon;timestamp;P1;durP1;ratioP1;P2;durP2;ratioP2
73650;SDS011;61944;52.538;6.108;2022-09-30T00:00:04;9.50;;;7.07;;
73650;SDS011;61944;52.538;6.108;2022-09-30T00:02:31;9.73;;;6.57;;
73650;SDS011;61944;52.538;6.108;2022-09-30T00:04:56;8.68;;;7.40;;
73650;SDS011;61944;52.538;6.108;2022-09-30T00:07:21;8.85;;;6.95;;
73650;SDS011;61944;52.538;6.108;2022-09-30T00:09:48;8.27;;;6.43;;
73650;SDS011;61944;52.538;6.108;2022-09-30T00:12:13;6.55;;;5.88;;
73650;SDS011;61944;52.538;6.108;2022-09-30T00:14:38;8.02;;;6.38;;
73650;SDS011;61944;52.538;6.108;2022-09-30T00:17:04;6.18;;;5.53;;
73650;SDS011;61944;52.538;6.108;2022-09-30T00:19:29;9.32;;;6.38;;
73650;SDS011;61944;52.538;6.108;2022-09-30T00:21:55;6.60;;;5.00;;
73650;SDS011;61944;52.538;6.108;2022-09-30T00:24:20;8.25;;;6.32;;
73650;SDS011;61944;52.538;6.108;2022-09-30T00:26:45;7.78;;;5.90;;
73650;SDS011;61944;52.538;6.108;2022-09-30T00:29:11;8.05;;;5.35;;
73650;SDS011;61944;52.538;6.108;2022-09-30T00:31:36;11.55;;;6.88;;
73650;SDS011;61944;52.538;6.108;2022-09-30T00:34:02;7.75;;;5.57;;
73650;SDS011;61944;52.538;6.108;2022-09-30T00:36:50;7.85;;;6.43;;
73650;SDS011;61944;52.538;6.108;2022-09-30T00:41:50;9.15;;;5.47;;
73650;SDS011;61944;52.538;6.108;2022-09-30T00:47:22;7.43;;;5.38;;
73650;SDS011;61944;52.538;6.108;2022-09-30T00:49:55;6.35;;;5.53;;
73650;SDS011;61944;52.538;6.108;2022-09-30T00:52:26;6.78;;;4.93;;
73650;SDS011;61944;52.538;6.108;2022-09-30T00:54:52;6.78;;;5.78;;
73650;SDS011;61944;52.538;6.108;2022-09-30T00:57:19;6.40;;;5.45;;
73650;SDS011;61944;52.538;6.108;2022-09-30T00:59:46;6.55;;;4.90;;
73650;SDS011;61944;52.538;6.108;2022-09-30T01:02:14;7.18;;;5.75;;
73650;SDS011;61944;52.538;6.108;2022-09-30T01:04:40;6.65;;;5.63;;
73650;SDS011;61944;52.538;6.108;2022-09-30T01:07:08;7.15;;;5.68;;
73650;SDS011;61944;52.538;6.108;2022-09-30T01:09:34;7.10;;;5.32;;
73650;SDS011;61944;52.538;6.108;2022-09-30T01:12:05;8.13;;;6.10;;
73650;SDS011;61944;52.538;6.108;2022-09-30T01:14:35;7.32;;;5.22;;
73650;SDS011;61944;52.538;6.108;2022-09-30T01:36:37;7.32;;;5.88;;
73650;SDS011;61944;52.538;6.108;2022-09-30T01:42:08;8.95;;;6.35;;
73650;SDS011;61944;52.538;6.108;2022-09-30T01:47:40;7.43;;;5.78;;
73650;SDS011;61944;52.538;6.108;2022-09-30T01:50:09;7.75;;;5.75;;
73650;SDS011;61944;52.538;6.108;2022-09-30T01:55:49;7.72;;;6.22;;
73650;SDS011;61944;52.538;6.108;2022-09-30T01:58:30;7.63;;;5.78;;
73650;SDS011;61944;52.538;6.108;2022-09-30T02:01:02;8.57;;;5.93;;
73650;SDS011;61944;52.538;6.108;2022-09-30T02:03:36;7.82;;;5.82;;
73650;SDS011;61944;52.538;6.108;2022-09-30T02:06:10;8.75;;;6.82;;
73650;SDS011;61944;52.538;6.108;2022-09-30T02:08:43;6.75;;;5.80;;
73650;SDS011;61944;52.538;6.108;2022-09-30T02:11:12;7.93;;;5.70;;
73650;SDS011;61944;52.538;6.108;2022-09-30T02:16:33;11.45;;;5.57;;
73650;SDS011;61944;52.538;6.108;2022-09-30T02:19:12;8.30;;;5.78;;
73650;SDS011;61944;52.538;6.108;2022-09-30T02:21:40;8.25;;;5.55;;
73650;SDS011;61944;52.538;6.108;2022-09-30T02:24:09;8.63;;;5.82;;
73650;SDS011;61944;52.538;6.108;2022-09-30T02:26:40;7.55;;;5.88;;
73650;SDS011;61944;52.538;6.108;2022-09-30T02:29:17;6.68;;;5.20;;
73650;SDS011;61944;52.538;6.108;2022-09-30T02:31:48;10.85;;;5.10;;
73650;SDS011;61944;52.538;6.108;2022-09-30T02:34:18;8.27;;;5.68;;
73650;SDS011;61944;52.538;6.108;2022-09-30T02:36:58;6.70;;;5.15;;
73650;SDS011;61944;52.538;6.108;2022-09-30T02:39:31;6.63;;;5.30;;
73650;SDS011;61944;52.538;6.108;2022-09-30T02:42:12;7.68;;;5.57;;
73650;SDS011;61944;52.538;6.108;2022-09-30T02:44:44;6.35;;;4.97;;
73650;SDS011;61944;52.538;6.108;2022-09-30T02:47:17;6.95;;;4.95;;
73650;SDS011;61944;52.538;6.108;2022-09-30T02:50:03;6.22;;;5.00;;
73650;SDS011;61944;52.538;6.108;2022-09-30T02:55:46;6.28;;;5.18;;
73650;SDS011;61944;52.538;6.108;2022-09-30T03:00:42;7.03;;;4.95;;
73650;SDS011;61944;52.538;6.108;2022-09-30T03:03:11;5.22;;;4.40;;
73650;SDS011;61944;52.538;6.108;2022-09-30T03:05:42;5.65;;;4.45;;
73650;SDS011;61944;52.538;6.108;2022-09-30T03:08:09;6.25;;;4.75;;
73650;SDS011;61944;52.538;6.108;2022-09-30T03:10:35;6.55;;;4.65;;
73650;SDS011;61944;52.538;6.108;2022-09-30T03:21:29;7.35;;;4.35;;
73650;SDS011;61944;52.538;6.108;2022-09-30T03:32:25;4.68;;;3.42;;
73650;SDS011;61944;52.538;6.108;2022-09-30T03:35:03;4.90;;;3.90;;
73650;SDS011;61944;52.538;6.108;2022-09-30T03:38:00;5.80;;;4.00;;
73650;SDS011;61944;52.538;6.108;2022-09-30T03:40:46;4.43;;;3.80;;
73650;SDS011;61944;52.538;6.108;2022-09-30T03:46:08;5.65;;;3.65;;
73650;SDS011;61944;52.538;6.108;2022-09-30T03:48:35;3.78;;;3.38;;
73650;SDS011;61944;52.538;6.108;2022-09-30T03:51:03;3.75;;;3.30;;
73650;SDS011;61944;52.538;6.108;2022-09-30T03:53:30;5.13;;;3.40;;
73650;SDS011;61944;52.538;6.108;2022-09-30T03:56:02;5.88;;;3.55;;
73650;SDS011;61944;52.538;6.108;2022-09-30T03:58:27;4.75;;;3.45;;
73650;SDS011;61944;52.538;6.108;2022-09-30T04:00:53;6.45;;;4.03;;
73650;SDS011;61944;52.538;6.108;2022-09-30T04:03:21;4.50;;;3.60;;
73650;SDS011;61944;52.538;6.108;2022-09-30T04:05:47;4.57;;;3.35;;
73650;SDS011;61944;52.538;6.108;2022-09-30T04:08:13;5.45;;;4.10;;
73650;SDS011;61944;52.538;6.108;2022-09-30T04:10:39;8.32;;;3.15;;
73650;SDS011;61944;52.538;6.108;2022-09-30T04:13:08;6.25;;;3.85;;
73650;SDS011;61944;52.538;6.108;2022-09-30T04:15:34;5.43;;;3.03;;
73650;SDS011;61944;52.538;6.108;2022-09-30T04:18:00;4.43;;;3.47;;
73650;SDS011;61944;52.538;6.108;2022-09-30T04:20:25;4.97;;;4.28;;
73650;SDS011;61944;52.538;6.108;2022-09-30T04:22:51;4.63;;;3.17;;
73650;SDS011;61944;52.538;6.108;2022-09-30T04:25:16;4.68;;;3.58;;
73650;SDS011;61944;52.538;6.108;2022-09-30T04:27:41;6.07;;;3.90;;
73650;SDS011;61944;52.538;6.108;2022-09-30T04:30:07;5.88;;;3.78;;
73650;SDS011;61944;52.538;6.108;2022-09-30T04:32:33;4.20;;;3.40;;
73650;SDS011;61944;52.538;6.108;2022-09-30T04:34:58;5.63;;;3.83;;
73650;SDS011;61944;52.538;6.108;2022-09-30T04:37:23;5.07;;;3.58;;
73650;SDS011;61944;52.538;6.108;2022-09-30T04:39:49;5.47;;;3.28;;
73650;SDS011;61944;52.538;6.108;2022-09-30T04:42:14;5.38;;;4.10;;
73650;SDS011;61944;52.538;6.108;2022-09-30T04:44:41;4.70;;;3.47;;
73650;SDS011;61944;52.538;6.108;2022-09-30T04:47:06;4.88;;;3.58;;
73650;SDS011;61944;52.538;6.108;2022-09-30T04:49:32;4.30;;;3.53;;
73650;SDS011;61944;52.538;6.108;2022-09-30T04:51:57;6.18;;;3.75;;
73650;SDS011;61944;52.538;6.108;2022-09-30T04:54:22;4.63;;;3.70;;
73650;SDS011;61944;52.538;6.108;2022-09-30T04:56:48;5.68;;;3.75;;
73650;SDS011;61944;52.538;6.108;2022-09-30T04:59:13;4.32;;;3.65;;
73650;SDS011;61944;52.538;6.108;2022-09-30T05:01:38;4.57;;;3.35;;
73650;SDS011;61944;52.538;6.108;2022-09-30T05:04:06;4.20;;;3.22;;
73650;SDS011;61944;52.538;6.108;2022-09-30T05:06:32;3.97;;;3.30;;
73650;SDS011;61944;52.538;6.108;2022-09-30T05:08:57;4.57;;;3.80;;
73650;SDS011;61944;52.538;6.108;2022-09-30T05:11:23;6.13;;;3.97;;
73650;SDS011;61944;52.538;6.108;2022-09-30T05:13:48;4.30;;;3.25;;
73650;SDS011;61944;52.538;6.108;2022-09-30T05:16:15;5.47;;;3.88;;
73650;SDS011;61944;52.538;6.108;2022-09-30T05:18:41;4.32;;;3.30;;
73650;SDS011;61944;52.538;6.108;2022-09-30T05:21:10;5.20;;;3.50;;
73650;SDS011;61944;52.538;6.108;2022-09-30T05:23:36;3.80;;;3.38;;
73650;SDS011;61944;52.538;6.108;2022-09-30T05:26:02;5.97;;;3.13;;
73650;SDS011;61944;52.538;6.108;2022-09-30T05:28:31;5.18;;;3.38;;
73650;SDS011;61944;52.538;6.108;2022-09-30T05:30:57;4.82;;;3.55;;
73650;SDS011;61944;52.538;6.108;2022-09-30T05:33:24;5.07;;;3.63;;
73650;SDS011;61944;52.538;6.108;2022-09-30T05:35:51;5.68;;;4.05;;
73650;SDS011;61944;52.538;6.108;2022-09-30T05:38:17;5.57;;;3.90;;
73650;SDS011;61944;52.538;6.108;2022-09-30T05:40:42;6.43;;;4.35;;
73650;SDS011;61944;52.538;6.108;2022-09-30T05:43:08;5.75;;;3.72;;
73650;SDS011;61944;52.538;6.108;2022-09-30T05:45:34;5.35;;;3.58;;
73650;SDS011;61944;52.538;6.108;2022-09-30T05:47:59;6.32;;;4.38;;
73650;SDS011;61944;52.538;6.108;2022-09-30T05:50:25;5.47;;;4.05;;
73650;SDS011;61944;52.538;6.108;2022-09-30T05:52:51;7.70;;;3.85;;
73650;SDS011;61944;52.538;6.108;2022-09-30T05:55:17;5.85;;;3.88;;
73650;SDS011;61944;52.538;6.108;2022-09-30T05:57:46;5.72;;;4.00;;
73650;SDS011;61944;52.538;6.108;2022-09-30T06:00:13;7.30;;;4.57;;
73650;SDS011;61944;52.538;6.108;2022-09-30T06:02:38;8.48;;;4.28;;
73650;SDS011;61944;52.538;6.108;2022-09-30T06:05:05;5.25;;;4.05;;
73650;SDS011;61944;52.538;6.108;2022-09-30T06:07:32;10.00;;;4.18;;
73650;SDS011;61944;52.538;6.108;2022-09-30T06:09:58;5.20;;;4.25;;
73650;SDS011;61944;52.538;6.108;2022-09-30T06:12:23;6.32;;;4.60;;
73650;SDS011;61944;52.538;6.108;2022-09-30T06:14:51;4.97;;;4.18;;
73650;SDS011;61944;52.538;6.108;2022-09-30T06:17:16;8.85;;;3.92;;
73650;SDS011;61944;52.538;6.108;2022-09-30T06:19:43;8.10;;;4.93;;
73650;SDS011;61944;52.538;6.108;2022-09-30T06:22:08;7.45;;;4.90;;
73650;SDS011;61944;52.538;6.108;2022-09-30T06:24:34;9.48;;;5.03;;
73650;SDS011;61944;52.538;6.108;2022-09-30T06:26:59;6.38;;;4.65;;
73650;SDS011;61944;52.538;6.108;2022-09-30T06:29:24;8.80;;;4.65;;
73650;SDS011;61944;52.538;6.108;2022-09-30T06:31:50;6.32;;;4.60;;
73650;SDS011;61944;52.538;6.108;2022-09-30T06:34:15;9.77;;;4.70;;
73650;SDS011;61944;52.538;6.108;2022-09-30T06:36:40;8.13;;;5.18;;
73650;SDS011;61944;52.538;6.108;2022-09-30T06:39:06;9.35;;;5.05;;
73650;SDS011;61944;52.538;6.108;2022-09-30T06:41:31;7.70;;;5.55;;
73650;SDS011;61944;52.538;6.108;2022-09-30T06:43:57;7.15;;;4.95;;
73650;SDS011;61944;52.538;6.108;2022-09-30T06:46:23;7.88;;;4.35;;
73650;SDS011;61944;52.538;6.108;2022-09-30T06:48:52;6.65;;;5.00;;
73650;SDS011;61944;52.538;6.108;2022-09-30T06:51:18;8.32;;;5.18;;
73650;SDS011;61944;52.538;6.108;2022-09-30T06:53:44;33.45;;;10.57;;
73650;SDS011;61944;52.538;6.108;2022-09-30T06:56:09;14.65;;;5.60;;
73650;SDS011;61944;52.538;6.108;2022-09-30T06:58:35;11.43;;;6.20;;
73650;SDS011;61944;52.538;6.108;2022-09-30T07:01:02;38.13;;;11.30;;
73650;SDS011;61944;52.538;6.108;2022-09-30T07:03:30;71.75;;;13.98;;
73650;SDS011;61944;52.538;6.108;2022-09-30T07:05:57;82.78;;;17.85;;
73650;SDS011;61944;52.538;6.108;2022-09-30T07:08:27;49.15;;;11.77;;
73650;SDS011;61944;52.538;6.108;2022-09-30T07:10:56;30.88;;;9.80;;
73650;SDS011;61944;52.538;6.108;2022-09-30T07:13:22;29.23;;;10.25;;
73650;SDS011;61944;52.538;6.108;2022-09-30T07:15:47;19.55;;;8.45;;
73650;SDS011;61944;52.538;6.108;2022-09-30T07:18:16;20.50;;;8.68;;
73650;SDS011;61944;52.538;6.108;2022-09-30T07:20:54;23.77;;;10.15;;
73650;SDS011;61944;52.538;6.108;2022-09-30T07:23:21;15.95;;;8.38;;
73650;SDS011;61944;52.538;6.108;2022-09-30T07:25:54;15.82;;;7.57;;
73650;SDS011;61944;52.538;6.108;2022-09-30T07:28:22;12.15;;;7.45;;
73650;SDS011;61944;52.538;6.108;2022-09-30T07:30:51;12.80;;;7.85;;
73650;SDS011;61944;52.538;6.108;2022-09-30T07:33:19;13.25;;;7.32;;
73650;SDS011;61944;52.538;6.108;2022-09-30T07:35:51;15.57;;;7.90;;
73650;SDS011;61944;52.538;6.108;2022-09-30T07:40:57;15.43;;;8.30;;
73650;SDS011;61944;52.538;6.108;2022-09-30T07:46:05;171.93;;;29.77;;
73650;SDS011;61944;52.538;6.108;2022-09-30T07:48:33;28.85;;;11.07;;
73650;SDS011;61944;52.538;6.108;2022-09-30T07:51:14;32.10;;;9.77;;
73650;SDS011;61944;52.538;6.108;2022-09-30T07:53:44;40.75;;;10.43;;
73650;SDS011;61944;52.538;6.108;2022-09-30T07:56:11;18.05;;;9.90;;
73650;SDS011;61944;52.538;6.108;2022-09-30T07:58:38;16.40;;;10.95;;
73650;SDS011;61944;52.538;6.108;2022-09-30T08:01:04;19.75;;;10.20;;
73650;SDS011;61944;52.538;6.108;2022-09-30T08:03:33;15.73;;;10.68;;
73650;SDS011;61944;52.538;6.108;2022-09-30T08:06:06;13.85;;;10.43;;
73650;SDS011;61944;52.538;6.108;2022-09-30T08:08:36;14.68;;;8.98;;
73650;SDS011;61944;52.538;6.108;2022-09-30T08:11:03;12.40;;;8.35;;
73650;SDS011;61944;52.538;6.108;2022-09-30T08:13:29;13.45;;;8.65;;
73650;SDS011;61944;52.538;6.108;2022-09-30T08:15:55;14.35;;;9.63;;
73650;SDS011;61944;52.538;6.108;2022-09-30T08:18:20;12.43;;;8.80;;
73650;SDS011;61944;52.538;6.108;2022-09-30T08:20:45;14.13;;;8.38;;
73650;SDS011;61944;52.538;6.108;2022-09-30T08:23:11;16.50;;;9.40;;
73650;SDS011;61944;52.538;6.108;2022-09-30T08:25:36;17.88;;;9.38;;
73650;SDS011;61944;52.538;6.108;2022-09-30T08:28:02;11.45;;;8.20;;
73650;SDS011;61944;52.538;6.108;2022-09-30T08:30:27;12.32;;;8.63;;
73650;SDS011;61944;52.538;6.108;2022-09-30T08:32:53;13.77;;;8.77;;
73650;SDS011;61944;52.538;6.108;2022-09-30T08:35:18;17.70;;;9.30;;
73650;SDS011;61944;52.538;6.108;2022-09-30T08:37:43;14.50;;;9.00;;
73650;SDS011;61944;52.538;6.108;2022-09-30T08:40:14;154.60;;;27.48;;
73650;SDS011;61944;52.538;6.108;2022-09-30T08:42:49;18.08;;;10.30;;
73650;SDS011;61944;52.538;6.108;2022-09-30T08:53:40;19.70;;;11.77;;
73650;SDS011;61944;52.538;6.108;2022-09-30T08:56:07;16.38;;;10.98;;
73650;SDS011;61944;52.538;6.108;2022-09-30T08:58:50;12.70;;;9.25;;
73650;SDS011;61944;52.538;6.108;2022-09-30T09:04:01;15.68;;;9.20;;
73650;SDS011;61944;52.538;6.108;2022-09-30T09:09:32;22.50;;;8.93;;
73650;SDS011;61944;52.538;6.108;2022-09-30T09:12:02;16.75;;;9.35;;
73650;SDS011;61944;52.538;6.108;2022-09-30T09:14:43;16.48;;;9.57;;
73650;SDS011;61944;52.538;6.108;2022-09-30T09:22:27;121.13;;;23.42;;
73650;SDS011;61944;52.538;6.108;2022-09-30T09:24:55;50.03;;;16.90;;
73650;SDS011;61944;52.538;6.108;2022-09-30T09:27:28;50.53;;;13.40;;
73650;SDS011;61944;52.538;6.108;2022-09-30T09:30:16;27.90;;;10.32;;
73650;SDS011;61944;52.538;6.108;2022-09-30T09:32:46;26.80;;;9.70;;
73650;SDS011;61944;52.538;6.108;2022-09-30T09:35:27;16.23;;;9.02;;
73650;SDS011;61944;52.538;6.108;2022-09-30T09:46:48;25.90;;;9.85;;
73650;SDS011;61944;52.538;6.108;2022-09-30T09:54:43;15.77;;;8.75;;
73650;SDS011;61944;52.538;6.108;2022-09-30T09:57:13;13.43;;;8.20;;
73650;SDS011;61944;52.538;6.108;2022-09-30T10:05:25;13.23;;;8.30;;
73650;SDS011;61944;52.538;6.108;2022-09-30T10:07:54;17.20;;;7.85;;
73650;SDS011;61944;52.538;6.108;2022-09-30T10:10:54;12.82;;;5.70;;
73650;SDS011;61944;52.538;6.108;2022-09-30T10:13:28;14.30;;;5.22;;
73650;SDS011;61944;52.538;6.108;2022-09-30T10:15:59;14.38;;;6.18;;
73650;SDS011;61944;52.538;6.108;2022-09-30T10:18:31;118.68;;;14.25;;
73650;SDS011;61944;52.538;6.108;2022-09-30T10:21:05;52.95;;;10.90;;
73650;SDS011;61944;52.538;6.108;2022-09-30T10:23:43;25.45;;;11.52;;
73650;SDS011;61944;52.538;6.108;2022-09-30T10:28:49;17.60;;;11.80;;
73650;SDS011;61944;52.538;6.108;2022-09-30T10:31:23;15.90;;;9.80;;
73650;SDS011;61944;52.538;6.108;2022-09-30T10:36:46;15.80;;;10.65;;
73650;SDS011;61944;52.538;6.108;2022-09-30T10:41:51;50.13;;;13.27;;
73650;SDS011;61944;52.538;6.108;2022-09-30T10:44:26;23.05;;;11.77;;
73650;SDS011;61944;52.538;6.108;2022-09-30T10:46:52;20.80;;;14.25;;
73650;SDS011;61944;52.538;6.108;2022-09-30T10:49:29;24.98;;;13.07;;
73650;SDS011;61944;52.538;6.108;2022-09-30T10:52:00;16.63;;;12.30;;
73650;SDS011;61944;52.538;6.108;2022-09-30T10:57:04;11.27;;;7.35;;
73650;SDS011;61944;52.538;6.108;2022-09-30T10:59:30;12.27;;;4.90;;
73650;SDS011;61944;52.538;6.108;2022-09-30T11:02:24;6.93;;;3.80;;
73650;SDS011;61944;52.538;6.108;2022-09-30T11:04:57;5.53;;;3.08;;
73650;SDS011;61944;52.538;6.108;2022-09-30T11:13:14;8.65;;;4.50;;
73650;SDS011;61944;52.538;6.108;2022-09-30T11:20:55;4.00;;;2.45;;
73650;SDS011;61944;52.538;6.108;2022-09-30T11:23:40;5.97;;;2.28;;
73650;SDS011;61944;52.538;6.108;2022-09-30T11:34:31;5.55;;;2.92;;
73650;SDS011;61944;52.538;6.108;2022-09-30T11:43:02;6.18;;;3.00;;
73650;SDS011;61944;52.538;6.108;2022-09-30T11:45:35;6.63;;;3.58;;
73650;SDS011;61944;52.538;6.108;2022-09-30T11:51:04;6.45;;;2.90;;
73650;SDS011;61944;52.538;6.108;2022-09-30T11:53:42;5.88;;;2.90;;
73650;SDS011;61944;52.538;6.108;2022-09-30T11:59:10;5.38;;;2.53;;
73650;SDS011;61944;52.538;6.108;2022-09-30T12:01:41;5.38;;;2.95;;
73650;SDS011;61944;52.538;6.108;2022-09-30T12:04:14;6.55;;;3.08;;
73650;SDS011;61944;52.538;6.108;2022-09-30T12:06:47;3.80;;;3.20;;
73650;SDS011;61944;52.538;6.108;2022-09-30T12:09:30;6.75;;;2.90;;
73650;SDS011;61944;52.538;6.108;2022-09-30T12:12:08;4.85;;;3.20;;
73650;SDS011;61944;52.538;6.108;2022-09-30T12:17:25;5.13;;;3.35;;
73650;SDS011;61944;52.538;6.108;2022-09-30T12:19:57;6.97;;;3.50;;
73650;SDS011;61944;52.538;6.108;2022-09-30T12:22:30;4.95;;;3.35;;
73650;SDS011;61944;52.538;6.108;2022-09-30T12:25:01;9.50;;;3.30;;
73650;SDS011;61944;52.538;6.108;2022-09-30T12:27:38;4.18;;;2.50;;
73650;SDS011;61944;52.538;6.108;2022-09-30T12:30:13;4.40;;;2.70;;
73650;SDS011;61944;52.538;6.108;2022-09-30T12:38:45;4.85;;;3.55;;
73650;SDS011;61944;52.538;6.108;2022-09-30T12:41:42;7.25;;;3.40;;
73650;SDS011;61944;52.538;6.108;2022-09-30T12:47:45;4.20;;;3.50;;
73650;SDS011;61944;52.538;6.108;2022-09-30T12:50:27;5.03;;;3.60;;
73650;SDS011;61944;52.538;6.108;2022-09-30T12:53:09;6.97;;;3.92;;
73650;SDS011;61944;52.538;6.108;2022-09-30T12:55:41;9.20;;;3.67;;
73650;SDS011;61944;52.538;6.108;2022-09-30T12:58:21;5.85;;;3.30;;
73650;SDS011;61944;52.538;6.108;2022-09-30T13:01:07;7.00;;;3.97;;
73650;SDS011;61944;52.538;6.108;2022-09-30T13:06:26;4.30;;;3.38;;
73650;SDS011;61944;52.538;6.108;2022-09-30T13:14:31;6.55;;;4.00;;
73650;SDS011;61944;52.538;6.108;2022-09-30T13:27:32;4.50;;;3.67;;
73650;SDS011;61944;52.538;6.108;2022-09-30T13:29:59;5.45;;;3.75;;
73650;SDS011;61944;52.538;6.108;2022-09-30T13:32:29;8.80;;;3.60;;
73650;SDS011;61944;52.538;6.108;2022-09-30T13:34:56;4.80;;;3.10;;
73650;SDS011;61944;52.538;6.108;2022-09-30T13:37:33;5.50;;;3.05;;
73650;SDS011;61944;52.538;6.108;2022-09-30T13:40:02;5.50;;;2.85;;
73650;SDS011;61944;52.538;6.108;2022-09-30T13:42:30;3.83;;;2.78;;
73650;SDS011;61944;52.538;6.108;2022-09-30T13:47:33;12.63;;;4.22;;
73650;SDS011;61944;52.538;6.108;2022-09-30T13:52:53;4.63;;;3.75;;
73650;SDS011;61944;52.538;6.108;2022-09-30T13:55:23;6.03;;;3.90;;
73650;SDS011;61944;52.538;6.108;2022-09-30T14:00:40;3.80;;;3.45;;
73650;SDS011;61944;52.538;6.108;2022-09-30T14:14:01;4.13;;;3.53;;
73650;SDS011;61944;52.538;6.108;2022-09-30T14:22:45;4.45;;;2.72;;
73650;SDS011;61944;52.538;6.108;2022-09-30T14:25:13;2.92;;;2.60;;
73650;SDS011;61944;52.538;6.108;2022-09-30T14:30:24;3.60;;;2.33;;
73650;SDS011;61944;52.538;6.108;2022-09-30T14:32:59;4.80;;;2.72;;
73650;SDS011;61944;52.538;6.108;2022-09-30T14:35:30;3.75;;;1.92;;
73650;SDS011;61944;52.538;6.108;2022-09-30T14:38:15;3.70;;;2.60;;
73650;SDS011;61944;52.538;6.108;2022-09-30T14:40:52;7.88;;;2.72;;
73650;SDS011;61944;52.538;6.108;2022-09-30T14:43:22;7.13;;;3.00;;
73650;SDS011;61944;52.538;6.108;2022-09-30T14:45:56;7.55;;;2.78;;
73650;SDS011;61944;52.538;6.108;2022-09-30T14:48:26;6.28;;;2.85;;
73650;SDS011;61944;52.538;6.108;2022-09-30T14:50:59;4.50;;;2.92;;
73650;SDS011;61944;52.538;6.108;2022-09-30T14:55:56;4.72;;;2.90;;
73650;SDS011;61944;52.538;6.108;2022-09-30T14:58:24;3.50;;;3.20;;
73650;SDS011;61944;52.538;6.108;2022-09-30T15:03:26;3.90;;;2.20;;
73650;SDS011;61944;52.538;6.108;2022-09-30T15:05:54;3.92;;;1.95;;
73650;SDS011;61944;52.538;6.108;2022-09-30T15:08:22;3.67;;;2.28;;
73650;SDS011;61944;52.538;6.108;2022-09-30T15:10:54;3.17;;;2.28;;
73650;SDS011;61944;52.538;6.108;2022-09-30T15:13:20;5.45;;;1.98;;
73650;SDS011;61944;52.538;6.108;2022-09-30T15:15:48;5.47;;;1.83;;
73650;SDS011;61944;52.538;6.108;2022-09-30T15:20:52;5.55;;;2.72;;
73650;SDS011;61944;52.538;6.108;2022-09-30T15:23:24;6.80;;;2.20;;
73650;SDS011;61944;52.538;6.108;2022-09-30T15:25:54;5.22;;;2.20;;
73650;SDS011;61944;52.538;6.108;2022-09-30T15:28:21;2.30;;;1.90;;
73650;SDS011;61944;52.538;6.108;2022-09-30T15:30:46;2.70;;;2.00;;
73650;SDS011;61944;52.538;6.108;2022-09-30T15:33:15;4.70;;;1.70;;
73650;SDS011;61944;52.538;6.108;2022-09-30T15:35:43;2.55;;;1.88;;
73650;SDS011;61944;52.538;6.108;2022-09-30T15:38:20;3.83;;;1.85;;
73650;SDS011;61944;52.538;6.108;2022-09-30T15:40:54;3.65;;;2.63;;
73650;SDS011;61944;52.538;6.108;2022-09-30T15:43:31;4.40;;;1.83;;
73650;SDS011;61944;52.538;6.108;2022-09-30T15:49:01;3.33;;;2.40;;
73650;SDS011;61944;52.538;6.108;2022-09-30T15:56:39;5.72;;;3.30;;
73650;SDS011;61944;52.538;6.108;2022-09-30T16:01:37;5.38;;;3.17;;
73650;SDS011;61944;52.538;6.108;2022-09-30T16:14:54;5.30;;;3.67;;
73650;SDS011;61944;52.538;6.108;2022-09-30T16:17:20;4.47;;;2.95;;
73650;SDS011;61944;52.538;6.108;2022-09-30T16:19:52;7.30;;;3.70;;
73650;SDS011;61944;52.538;6.108;2022-09-30T16:28:09;7.65;;;4.13;;
73650;SDS011;61944;52.538;6.108;2022-09-30T16:30:46;6.55;;;3.90;;
73650;SDS011;61944;52.538;6.108;2022-09-30T16:33:14;4.90;;;4.13;;
73650;SDS011;61944;52.538;6.108;2022-09-30T16:35:43;11.68;;;4.72;;
73650;SDS011;61944;52.538;6.108;2022-09-30T16:38:12;4.55;;;3.97;;
73650;SDS011;61944;52.538;6.108;2022-09-30T16:40:39;5.75;;;4.05;;
73650;SDS011;61944;52.538;6.108;2022-09-30T16:43:04;9.18;;;7.63;;
73650;SDS011;61944;52.538;6.108;2022-09-30T16:45:31;7.65;;;5.43;;
73650;SDS011;61944;52.538;6.108;2022-09-30T16:47:57;13.15;;;10.35;;
73650;SDS011;61944;52.538;6.108;2022-09-30T16:50:38;7.25;;;6.07;;
73650;SDS011;61944;52.538;6.108;2022-09-30T16:53:06;6.97;;;5.22;;
73650;SDS011;61944;52.538;6.108;2022-09-30T16:55:34;6.05;;;4.45;;
73650;SDS011;61944;52.538;6.108;2022-09-30T16:58:00;7.95;;;5.05;;
73650;SDS011;61944;52.538;6.108;2022-09-30T17:00:26;7.30;;;5.05;;
73650;SDS011;61944;52.538;6.108;2022-09-30T17:02:52;16.70;;;6.47;;
73650;SDS011;61944;52.538;6.108;2022-09-30T17:05:19;7.18;;;5.50;;
73650;SDS011;61944;52.538;6.108;2022-09-30T17:07:52;10.27;;;5.53;;
73650;SDS011;61944;52.538;6.108;2022-09-30T17:10:24;6.78;;;5.07;;
73650;SDS011;61944;52.538;6.108;2022-09-30T17:12:55;7.35;;;5.65;;
73650;SDS011;61944;52.538;6.108;2022-09-30T17:15:24;7.97;;;5.75;;
73650;SDS011;61944;52.538;6.108;2022-09-30T17:17:50;6.75;;;5.53;;
73650;SDS011;61944;52.538;6.108;2022-09-30T17:20:16;7.85;;;5.30;;
73650;SDS011;61944;52.538;6.108;2022-09-30T17:22:43;8.25;;;6.38;;
73650;SDS011;61944;52.538;6.108;2022-09-30T17:25:09;7.13;;;5.30;;
73650;SDS011;61944;52.538;6.108;2022-09-30T17:27:35;7.38;;;5.55;;
73650;SDS011;61944;52.538;6.108;2022-09-30T17:30:00;9.23;;;5.63;;
73650;SDS011;61944;52.538;6.108;2022-09-30T17:32:27;7.85;;;7.07;;
73650;SDS011;61944;52.538;6.108;2022-09-30T17:34:53;9.73;;;6.00;;
73650;SDS011;61944;52.538;6.108;2022-09-30T17:37:18;8.27;;;5.85;;
73650;SDS011;61944;52.538;6.108;2022-09-30T17:39:44;7.68;;;5.85;;
73650;SDS011;61944;52.538;6.108;2022-09-30T17:42:15;7.43;;;6.57;;
73650;SDS011;61944;52.538;6.108;2022-09-30T17:44:59;8.35;;;6.03;;
73650;SDS011;61944;52.538;6.108;2022-09-30T17:47:25;10.52;;;6.50;;
73650;SDS011;61944;52.538;6.108;2022-09-30T17:49:50;9.98;;;5.47;;
73650;SDS011;61944;52.538;6.108;2022-09-30T17:52:16;6.88;;;6.20;;
73650;SDS011;61944;52.538;6.108;2022-09-30T17:54:42;6.60;;;5.88;;
73650;SDS011;61944;52.538;6.108;2022-09-30T17:57:07;9.60;;;7.72;;
73650;SDS011;61944;52.538;6.108;2022-09-30T17:59:33;9.90;;;7.20;;
73650;SDS011;61944;52.538;6.108;2022-09-30T18:01:58;9.27;;;6.90;;
73650;SDS011;61944;52.538;6.108;2022-09-30T18:04:24;8.95;;;7.95;;
73650;SDS011;61944;52.538;6.108;2022-09-30T18:06:50;8.95;;;7.97;;
73650;SDS011;61944;52.538;6.108;2022-09-30T18:09:19;7.72;;;7.03;;
73650;SDS011;61944;52.538;6.108;2022-09-30T18:11:45;13.07;;;11.07;;
73650;SDS011;61944;52.538;6.108;2022-09-30T18:14:11;16.13;;;9.57;;
73650;SDS011;61944;52.538;6.108;2022-09-30T18:16:37;17.15;;;13.50;;
73650;SDS011;61944;52.538;6.108;2022-09-30T18:19:03;11.90;;;10.02;;
73650;SDS011;61944;52.538;6.108;2022-09-30T18:21:32;14.10;;;11.05;;
73650;SDS011;61944;52.538;6.108;2022-09-30T18:23:58;16.17;;;12.35;;
73650;SDS011;61944;52.538;6.108;2022-09-30T18:26:24;11.82;;;9.15;;
73650;SDS011;61944;52.538;6.108;2022-09-30T18:28:52;31.08;;;18.40;;
73650;SDS011;61944;52.538;6.108;2022-09-30T18:31:19;18.02;;;12.63;;
73650;SDS011;61944;52.538;6.108;2022-09-30T18:33:58;9.82;;;8.82;;
73650;SDS011;61944;52.538;6.108;2022-09-30T18:36:24;9.10;;;6.88;;
73650;SDS011;61944;52.538;6.108;2022-09-30T18:38:51;9.95;;;8.95;;
73650;SDS011;61944;52.538;6.108;2022-09-30T18:41:16;9.80;;;7.05;;
73650;SDS011;61944;52.538;6.108;2022-09-30T18:43:45;16.52;;;7.90;;
73650;SDS011;61944;52.538;6.108;2022-09-30T18:46:14;9.57;;;8.68;;
73650;SDS011;61944;52.538;6.108;2022-09-30T18:48:39;9.98;;;8.98;;
73650;SDS011;61944;52.538;6.108;2022-09-30T18:51:05;8.55;;;6.97;;
73650;SDS011;61944;52.538;6.108;2022-09-30T18:53:32;9.52;;;8.48;;
73650;SDS011;61944;52.538;6.108;2022-09-30T18:56:04;8.35;;;6.78;;
73650;SDS011;61944;52.538;6.108;2022-09-30T18:58:30;7.60;;;6.72;;